createdAt,value
2017-05-20T19:31:06.457Z,16.80
2017-05-20T19:33:36.606Z,16.80
2017-05-20T19:36:06.254Z,16.70
2017-05-20T19:38:36.675Z,16.60
2017-05-20T19:41:07.120Z,16.60
2017-05-20T19:43:37.217Z,16.50
2017-05-20T19:46:07.336Z,16.50
2017-05-20T19:48:37.168Z,16.50
2017-05-20T19:51:06.813Z,16.40
2017-05-20T19:53:36.273Z,16.40
2017-05-20T19:56:05.617Z,16.40
2017-05-20T19:58:34.726Z,16.30
2017-05-20T20:01:03.919Z,16.30
2017-05-20T20:03:32.889Z,16.30
2017-05-20T20:06:01.912Z,16.20
2017-05-20T20:08:31.075Z,16.10
2017-05-20T20:11:00.095Z,16.10
2017-05-20T20:13:29.131Z,16.00
2017-05-20T20:15:58.193Z,15.90
2017-05-20T20:18:27.291Z,15.80
2017-05-20T20:20:56.378Z,15.80
2017-05-20T20:23:25.532Z,15.80
2017-05-20T20:25:54.923Z,15.70
2017-05-20T20:28:24.420Z,15.70
2017-05-20T20:30:53.848Z,15.50
2017-05-20T20:33:23.247Z,15.50
2017-05-20T20:35:53.163Z,15.40
2017-05-20T20:38:22.351Z,15.20
2017-05-20T20:40:51.581Z,15.20
2017-05-20T20:43:20.932Z,15.20
2017-05-20T20:45:49.986Z,15.20
2017-05-20T20:48:19.024Z,15.20
2017-05-20T20:50:48.074Z,15.10
2017-05-20T20:53:17.089Z,15.00
2017-05-20T20:55:46.187Z,15.00
2017-05-20T20:58:15.378Z,15.00
2017-05-20T21:00:44.413Z,14.90
2017-05-20T21:03:13.439Z,14.90
2017-05-20T21:05:42.507Z,14.90
2017-05-20T21:08:11.527Z,14.90
2017-05-20T21:10:40.639Z,14.80
2017-05-20T21:13:09.727Z,14.80
2017-05-20T21:15:38.758Z,14.60
2017-05-20T21:18:07.811Z,14.70
2017-05-20T21:20:36.907Z,14.70
2017-05-20T21:23:06.006Z,14.60
2017-05-20T21:25:35.133Z,14.50
2017-05-20T21:28:04.290Z,14.30
2017-05-20T21:30:33.343Z,14.20
2017-05-20T21:33:02.346Z,13.90
2017-05-20T21:35:31.414Z,13.80
2017-05-20T21:38:00.450Z,13.70
2017-05-20T21:40:29.471Z,13.70
2017-05-20T21:42:58.523Z,13.70
2017-05-20T21:45:27.645Z,13.60
2017-05-20T21:47:56.750Z,13.60
2017-05-20T21:50:25.842Z,13.60
2017-05-20T21:52:54.945Z,13.50
2017-05-20T21:55:23.990Z,13.50
2017-05-20T21:57:53.090Z,13.60
2017-05-20T22:00:22.121Z,13.50
2017-05-20T22:02:51.163Z,13.50
2017-05-20T22:05:20.306Z,13.40
2017-05-20T22:07:49.366Z,13.40
2017-05-20T22:10:18.375Z,13.40
2017-05-20T22:12:47.444Z,13.40
2017-05-20T22:15:16.496Z,13.30
2017-05-20T22:17:45.550Z,13.30
2017-05-20T22:20:14.670Z,13.20
2017-05-20T22:22:43.711Z,13.20
2017-05-20T22:25:12.810Z,13.10
2017-05-20T22:27:41.849Z,13.00
2017-05-20T22:30:10.910Z,13.10
2017-05-20T22:32:39.946Z,13.10
2017-05-20T22:35:09.006Z,13.20
2017-05-20T22:37:38.025Z,13.10
2017-05-20T22:40:07.051Z,13.20
2017-05-20T22:42:36.156Z,13.10
2017-05-20T22:45:05.213Z,13.10
2017-05-20T22:47:34.244Z,13.10
2017-05-20T22:50:03.393Z,12.90
2017-05-20T22:52:32.489Z,13.00
2017-05-20T22:55:01.516Z,13.00
2017-05-20T22:57:30.622Z,13.00
2017-05-20T22:59:59.667Z,12.80
2017-05-20T23:02:28.765Z,12.90
2017-05-20T23:04:57.834Z,12.80
2017-05-20T23:07:26.883Z,12.60
2017-05-20T23:09:55.894Z,12.50
2017-05-20T23:12:24.954Z,12.70
2017-05-20T23:14:54.015Z,12.60
2017-05-20T23:17:23.055Z,12.60
2017-05-20T23:19:52.115Z,12.40
2017-05-20T23:22:21.149Z,12.40
2017-05-20T23:24:50.164Z,12.40
2017-05-20T23:27:19.315Z,12.40
2017-05-20T23:29:48.326Z,12.40
2017-05-20T23:32:17.359Z,12.30
2017-05-20T23:34:46.418Z,12.40
2017-05-20T23:37:15.487Z,12.40
2017-05-20T23:39:44.584Z,12.40
2017-05-20T23:42:13.681Z,12.40
2017-05-20T23:44:42.696Z,12.30
2017-05-20T23:47:11.739Z,12.40
2017-05-20T23:49:40.796Z,12.30
2017-05-20T23:52:09.878Z,12.30
2017-05-20T23:54:38.914Z,12.20
2017-05-20T23:57:07.974Z,12.00
2017-05-20T23:59:36.990Z,12.00
